sensor_id;sensor_type;location;lat;lon;timestamp;pressure;altitude;pressure_sealevel;temperature;humidity
51528;BME280;37612;51.768;21.590;2023-08-24T00:03:01;100219.15;;;14.45;84.78
51528;BME280;37612;51.768;21.590;2023-08-24T00:07:04;100222.02;;;14.42;84.67
51528;BME280;37612;51.768;21.590;2023-08-24T00:11:06;100219.55;;;14.40;84.68
51528;BME280;37612;51.768;21.590;2023-08-24T00:15:09;100219.55;;;14.35;84.87
51528;BME280;37612;51.768;21.590;2023-08-24T00:19:12;100216.66;;;14.29;85.20
51528;BME280;37612;51.768;21.590;2023-08-24T00:23:14;100217.14;;;14.25;85.19
51528;BME280;37612;51.768;21.590;2023-08-24T00:27:16;100214.73;;;14.26;85.77
51528;BME280;37612;51.768;21.590;2023-08-24T00:31:18;100213.48;;;14.30;85.61
51528;BME280;37612;51.768;21.590;2023-08-24T00:35:21;100215.73;;;14.28;85.54
51528;BME280;37612;51.768;21.590;2023-08-24T00:39:23;100217.79;;;14.24;85.60
51528;BME280;37612;51.768;21.590;2023-08-24T00:43:25;100217.35;;;14.18;85.63
51528;BME280;37612;51.768;21.590;2023-08-24T00:47:27;100212.31;;;14.09;85.68
51528;BME280;37612;51.768;21.590;2023-08-24T00:51:29;100212.79;;;14.02;85.85
51528;BME280;37612;51.768;21.590;2023-08-24T00:55:31;100213.27;;;14.02;86.04
51528;BME280;37612;51.768;21.590;2023-08-24T00:59:34;100215.80;;;14.03;86.26
51528;BME280;37612;51.768;21.590;2023-08-24T01:03:36;100215.26;;;13.99;86.46
51528;BME280;37612;51.768;21.590;2023-08-24T01:07:39;100219.80;;;13.93;86.42
51528;BME280;37612;51.768;21.590;2023-08-24T01:16:19;100213.69;;;13.88;86.82
51528;BME280;37612;51.768;21.590;2023-08-24T01:20:23;100213.01;;;13.87;86.59
51528;BME280;37612;51.768;21.590;2023-08-24T01:24:35;100215.23;;;13.86;87.02
51528;BME280;37612;51.768;21.590;2023-08-24T01:28:39;100215.30;;;13.82;87.18
51528;BME280;37612;51.768;21.590;2023-08-24T01:32:41;100214.16;;;13.76;87.38
51528;BME280;37612;51.768;21.590;2023-08-24T01:36:44;100213.52;;;13.75;87.33
51528;BME280;37612;51.768;21.590;2023-08-24T01:41:11;100214.48;;;13.76;87.52
51528;BME280;37612;51.768;21.590;2023-08-24T01:45:16;100206.81;;;13.79;87.63
51528;BME280;37612;51.768;21.590;2023-08-24T01:49:21;100203.22;;;13.81;87.78
51528;BME280;37612;51.768;21.590;2023-08-24T01:53:26;100206.13;;;13.85;88.34
51528;BME280;37612;51.768;21.590;2023-08-24T01:57:28;100206.18;;;13.89;88.45
51528;BME280;37612;51.768;21.590;2023-08-24T02:01:30;100204.89;;;13.94;88.60
51528;BME280;37612;51.768;21.590;2023-08-24T02:05:31;100196.09;;;14.00;88.79
51528;BME280;37612;51.768;21.590;2023-08-24T02:09:33;100195.41;;;14.05;89.24
51528;BME280;37612;51.768;21.590;2023-08-24T02:13:35;100197.11;;;14.09;89.18
51528;BME280;37612;51.768;21.590;2023-08-24T02:17:37;100194.16;;;14.12;89.15
51528;BME280;37612;51.768;21.590;2023-08-24T02:21:39;100191.26;;;14.13;89.28
51528;BME280;37612;51.768;21.590;2023-08-24T02:25:44;100187.30;;;14.17;89.74
51528;BME280;37612;51.768;21.590;2023-08-24T02:29:46;100186.48;;;14.24;90.53
51528;BME280;37612;51.768;21.590;2023-08-24T02:33:47;100184.32;;;14.29;90.53
51528;BME280;37612;51.768;21.590;2023-08-24T02:37:50;100185.28;;;14.31;90.70
51528;BME280;37612;51.768;21.590;2023-08-24T02:41:52;100189.84;;;14.33;90.71
51528;BME280;37612;51.768;21.590;2023-08-24T02:46:00;100188.83;;;14.37;90.75
51528;BME280;37612;51.768;21.590;2023-08-24T02:50:04;100186.77;;;14.43;90.88
51528;BME280;37612;51.768;21.590;2023-08-24T02:54:06;100189.40;;;14.45;90.62
51528;BME280;37612;51.768;21.590;2023-08-24T02:58:08;100189.88;;;14.43;90.24
51528;BME280;37612;51.768;21.590;2023-08-24T03:02:10;100188.77;;;14.38;90.19
51528;BME280;37612;51.768;21.590;2023-08-24T03:06:12;100191.36;;;14.36;90.20
51528;BME280;37612;51.768;21.590;2023-08-24T03:10:14;100193.29;;;14.35;90.19
51528;BME280;37612;51.768;21.590;2023-08-24T03:14:15;100199.67;;;14.33;90.15
51528;BME280;37612;51.768;21.590;2023-08-24T03:18:18;100198.27;;;14.34;90.35
51528;BME280;37612;51.768;21.590;2023-08-24T03:22:20;100205.26;;;14.34;90.45
51528;BME280;37612;51.768;21.590;2023-08-24T03:26:22;100211.83;;;14.29;90.46
51528;BME280;37612;51.768;21.590;2023-08-24T03:30:28;100212.41;;;14.21;90.35
51528;BME280;37612;51.768;21.590;2023-08-24T03:34:30;100213.98;;;14.17;90.46
51528;BME280;37612;51.768;21.590;2023-08-24T03:38:32;100216.17;;;14.17;90.36
51528;BME280;37612;51.768;21.590;2023-08-24T03:42:34;100216.88;;;14.13;90.44
51528;BME280;37612;51.768;21.590;2023-08-24T03:46:36;100207.95;;;14.07;90.52
51528;BME280;37612;51.768;21.590;2023-08-24T03:50:38;100206.45;;;14.00;90.32
51528;BME280;37612;51.768;21.590;2023-08-24T03:54:40;100209.56;;;13.93;90.64
51528;BME280;37612;51.768;21.590;2023-08-24T03:58:42;100205.63;;;13.89;90.68
51528;BME280;37612;51.768;21.590;2023-08-24T04:02:44;100209.34;;;13.89;90.87
51528;BME280;37612;51.768;21.590;2023-08-24T04:06:47;100205.80;;;13.93;91.50
51528;BME280;37612;51.768;21.590;2023-08-24T04:10:50;100204.56;;;14.04;91.93
51528;BME280;37612;51.768;21.590;2023-08-24T04:14:54;100210.16;;;14.08;91.87
51528;BME280;37612;51.768;21.590;2023-08-24T04:18:56;100206.99;;;14.08;92.03
51528;BME280;37612;51.768;21.590;2023-08-24T04:22:58;100205.32;;;14.12;92.15
51528;BME280;37612;51.768;21.590;2023-08-24T04:27:00;100209.40;;;14.19;92.30
51528;BME280;37612;51.768;21.590;2023-08-24T04:31:01;100215.00;;;14.23;92.17
51528;BME280;37612;51.768;21.590;2023-08-24T04:35:03;100213.38;;;14.26;91.94
51528;BME280;37612;51.768;21.590;2023-08-24T04:39:05;100213.11;;;14.27;92.25
51528;BME280;37612;51.768;21.590;2023-08-24T04:43:08;100211.55;;;14.29;92.35
51528;BME280;37612;51.768;21.590;2023-08-24T04:47:10;100215.41;;;14.35;92.44
51528;BME280;37612;51.768;21.590;2023-08-24T04:51:12;100218.31;;;14.40;92.51
51528;BME280;37612;51.768;21.590;2023-08-24T04:55:14;100215.30;;;14.49;92.52
51528;BME280;37612;51.768;21.590;2023-08-24T04:59:16;100214.73;;;14.56;92.42
51528;BME280;37612;51.768;21.590;2023-08-24T05:03:17;100216.11;;;14.61;92.73
51528;BME280;37612;51.768;21.590;2023-08-24T05:07:23;100211.64;;;14.66;92.96
51528;BME280;37612;51.768;21.590;2023-08-24T05:11:27;100216.84;;;14.74;93.00
51528;BME280;37612;51.768;21.590;2023-08-24T05:15:31;100214.72;;;14.84;92.97
51528;BME280;37612;51.768;21.590;2023-08-24T05:19:33;100219.35;;;14.97;93.11
51528;BME280;37612;51.768;21.590;2023-08-24T05:23:35;100223.33;;;15.10;93.17
51528;BME280;37612;51.768;21.590;2023-08-24T05:27:37;100227.66;;;15.20;93.30
51528;BME280;37612;51.768;21.590;2023-08-24T05:31:39;100224.64;;;15.33;93.30
51528;BME280;37612;51.768;21.590;2023-08-24T05:35:41;100227.91;;;15.49;93.19
51528;BME280;37612;51.768;21.590;2023-08-24T05:39:43;100229.10;;;15.66;93.25
51528;BME280;37612;51.768;21.590;2023-08-24T05:43:45;100231.55;;;15.82;93.16
51528;BME280;37612;51.768;21.590;2023-08-24T05:47:47;100231.25;;;15.96;92.79
51528;BME280;37612;51.768;21.590;2023-08-24T05:51:52;100229.38;;;16.10;92.49
51528;BME280;37612;51.768;21.590;2023-08-24T05:55:57;100221.15;;;16.26;92.04
51528;BME280;37612;51.768;21.590;2023-08-24T05:59:59;100221.80;;;16.43;91.85
51528;BME280;37612;51.768;21.590;2023-08-24T06:04:01;100219.86;;;16.62;91.63
51528;BME280;37612;51.768;21.590;2023-08-24T06:08:05;100215.35;;;16.87;91.28
51528;BME280;37612;51.768;21.590;2023-08-24T06:12:09;100208.94;;;17.10;90.77
51528;BME280;37612;51.768;21.590;2023-08-24T06:16:11;100211.98;;;17.29;90.18
51528;BME280;37612;51.768;21.590;2023-08-24T06:20:17;100210.73;;;17.47;89.78
51528;BME280;37612;51.768;21.590;2023-08-24T06:24:21;100208.02;;;17.63;89.29
51528;BME280;37612;51.768;21.590;2023-08-24T06:28:23;100209.67;;;17.80;89.03
51528;BME280;37612;51.768;21.590;2023-08-24T06:32:27;100215.77;;;17.98;88.82
51528;BME280;37612;51.768;21.590;2023-08-24T06:36:29;100215.66;;;18.13;88.64
51528;BME280;37612;51.768;21.590;2023-08-24T06:40:31;100217.59;;;18.30;88.51
51528;BME280;37612;51.768;21.590;2023-08-24T06:44:33;100214.24;;;18.46;87.89
51528;BME280;37612;51.768;21.590;2023-08-24T06:48:45;100213.83;;;18.65;87.52
51528;BME280;37612;51.768;21.590;2023-08-24T06:52:49;100214.88;;;18.86;86.88
51528;BME280;37612;51.768;21.590;2023-08-24T06:56:51;100219.14;;;19.09;86.63
51528;BME280;37612;51.768;21.590;2023-08-24T07:00:52;100215.73;;;19.29;85.99
51528;BME280;37612;51.768;21.590;2023-08-24T07:05:10;100221.56;;;19.53;85.50
51528;BME280;37612;51.768;21.590;2023-08-24T07:09:22;100224.92;;;19.76;84.86
51528;BME280;37612;51.768;21.590;2023-08-24T07:13:27;100221.42;;;19.93;84.23
51528;BME280;37612;51.768;21.590;2023-08-24T07:17:29;100214.35;;;20.13;84.24
51528;BME280;37612;51.768;21.590;2023-08-24T07:21:31;100218.17;;;20.36;83.49
51528;BME280;37612;51.768;21.590;2023-08-24T07:25:32;100217.15;;;20.57;82.93
51528;BME280;37612;51.768;21.590;2023-08-24T07:29:35;100213.68;;;20.77;81.89
51528;BME280;37612;51.768;21.590;2023-08-24T07:33:37;100215.86;;;20.99;81.71
51528;BME280;37612;51.768;21.590;2023-08-24T07:37:42;100214.59;;;21.28;80.74
51528;BME280;37612;51.768;21.590;2023-08-24T07:41:44;100214.23;;;21.60;80.44
51528;BME280;37612;51.768;21.590;2023-08-24T07:45:47;100219.09;;;21.87;79.07
51528;BME280;37612;51.768;21.590;2023-08-24T07:49:48;100221.98;;;22.12;78.16
51528;BME280;37612;51.768;21.590;2023-08-24T07:53:50;100221.80;;;22.40;77.44
51528;BME280;37612;51.768;21.590;2023-08-24T07:58:02;100225.36;;;22.70;76.51
51528;BME280;37612;51.768;21.590;2023-08-24T08:02:06;100225.78;;;22.99;75.18
51528;BME280;37612;51.768;21.590;2023-08-24T08:06:07;100226.56;;;23.33;75.06
51528;BME280;37612;51.768;21.590;2023-08-24T08:10:09;100226.14;;;23.53;73.15
51528;BME280;37612;51.768;21.590;2023-08-24T08:14:11;100221.74;;;23.68;70.64
51528;BME280;37612;51.768;21.590;2023-08-24T08:18:15;100219.67;;;23.72;71.25
51528;BME280;37612;51.768;21.590;2023-08-24T08:22:17;100217.95;;;23.87;70.57
51528;BME280;37612;51.768;21.590;2023-08-24T08:26:33;100219.94;;;24.04;69.49
51528;BME280;37612;51.768;21.590;2023-08-24T08:30:38;100215.74;;;24.04;65.48
51528;BME280;37612;51.768;21.590;2023-08-24T08:34:44;100211.16;;;24.20;66.66
51528;BME280;37612;51.768;21.590;2023-08-24T08:38:46;100212.57;;;24.38;66.33
51528;BME280;37612;51.768;21.590;2023-08-24T08:42:48;100211.27;;;24.49;65.84
51528;BME280;37612;51.768;21.590;2023-08-24T08:46:50;100210.23;;;24.51;64.02
51528;BME280;37612;51.768;21.590;2023-08-24T08:50:53;100210.36;;;24.62;62.62
51528;BME280;37612;51.768;21.590;2023-08-24T08:54:57;100206.20;;;24.61;62.60
51528;BME280;37612;51.768;21.590;2023-08-24T08:59:10;100208.14;;;24.66;59.94
51528;BME280;37612;51.768;21.590;2023-08-24T09:03:22;100211.48;;;24.70;59.88
51528;BME280;37612;51.768;21.590;2023-08-24T09:07:37;100208.44;;;24.82;59.83
51528;BME280;37612;51.768;21.590;2023-08-24T09:11:41;100205.66;;;24.86;58.52
51528;BME280;37612;51.768;21.590;2023-08-24T09:16:03;100199.89;;;24.85;58.32
51528;BME280;37612;51.768;21.590;2023-08-24T09:20:08;100192.89;;;24.99;59.10
51528;BME280;37612;51.768;21.590;2023-08-24T09:24:15;100183.46;;;25.17;58.27
51528;BME280;37612;51.768;21.590;2023-08-24T09:28:23;100187.23;;;25.28;58.11
51528;BME280;37612;51.768;21.590;2023-08-24T09:32:28;100183.42;;;25.39;57.72
51528;BME280;37612;51.768;21.590;2023-08-24T09:36:35;100181.05;;;25.49;56.95
51528;BME280;37612;51.768;21.590;2023-08-24T09:40:37;100170.66;;;25.62;56.48
51528;BME280;37612;51.768;21.590;2023-08-24T09:44:45;100168.09;;;25.82;56.60
51528;BME280;37612;51.768;21.590;2023-08-24T09:48:53;100172.91;;;25.97;56.19
51528;BME280;37612;51.768;21.590;2023-08-24T09:53:00;100168.34;;;26.02;55.22
51528;BME280;37612;51.768;21.590;2023-08-24T09:57:14;100162.23;;;26.05;54.91
51528;BME280;37612;51.768;21.590;2023-08-24T10:01:19;100155.94;;;26.12;54.86
51528;BME280;37612;51.768;21.590;2023-08-24T10:05:26;100154.35;;;26.24;55.00
51528;BME280;37612;51.768;21.590;2023-08-24T10:09:39;100158.56;;;26.23;54.27
51528;BME280;37612;51.768;21.590;2023-08-24T10:13:53;100155.74;;;26.14;52.93
51528;BME280;37612;51.768;21.590;2023-08-24T10:17:59;100154.58;;;25.93;52.77
51528;BME280;37612;51.768;21.590;2023-08-24T10:22:03;100151.90;;;25.78;53.10
51528;BME280;37612;51.768;21.590;2023-08-24T10:26:10;100150.95;;;25.84;52.97
51528;BME280;37612;51.768;21.590;2023-08-24T10:30:14;100153.89;;;25.93;52.64
51528;BME280;37612;51.768;21.590;2023-08-24T10:34:17;100155.61;;;26.05;52.68
51528;BME280;37612;51.768;21.590;2023-08-24T10:38:27;100155.30;;;26.03;52.02
51528;BME280;37612;51.768;21.590;2023-08-24T10:42:43;100157.71;;;25.99;52.40
51528;BME280;37612;51.768;21.590;2023-08-24T10:47:08;100153.77;;;25.92;52.35
51528;BME280;37612;51.768;21.590;2023-08-24T10:55:24;100151.50;;;25.89;50.91
51528;BME280;37612;51.768;21.590;2023-08-24T10:59:34;100152.67;;;26.04;51.33
51528;BME280;37612;51.768;21.590;2023-08-24T11:03:36;100146.16;;;26.15;51.34
51528;BME280;37612;51.768;21.590;2023-08-24T11:07:54;100153.77;;;26.41;52.40
51528;BME280;37612;51.768;21.590;2023-08-24T11:11:57;100155.30;;;26.54;51.01
51528;BME280;37612;51.768;21.590;2023-08-24T11:15:59;100152.17;;;26.48;49.88
51528;BME280;37612;51.768;21.590;2023-08-24T11:20:06;100146.59;;;26.57;50.04
51528;BME280;37612;51.768;21.590;2023-08-24T11:24:10;100139.61;;;26.69;49.48
51528;BME280;37612;51.768;21.590;2023-08-24T11:28:18;100137.05;;;26.73;49.19
51528;BME280;37612;51.768;21.590;2023-08-24T11:32:21;100132.55;;;26.82;50.02
51528;BME280;37612;51.768;21.590;2023-08-24T11:36:23;100127.77;;;27.06;50.01
51528;BME280;37612;51.768;21.590;2023-08-24T11:40:25;100128.27;;;27.11;48.51
51528;BME280;37612;51.768;21.590;2023-08-24T11:44:44;100118.41;;;27.05;48.50
51528;BME280;37612;51.768;21.590;2023-08-24T11:48:50;100107.35;;;27.17;48.82
51528;BME280;37612;51.768;21.590;2023-08-24T11:52:53;100102.04;;;27.41;48.68
51528;BME280;37612;51.768;21.590;2023-08-24T11:56:55;100104.59;;;27.51;48.31
51528;BME280;37612;51.768;21.590;2023-08-24T12:00:57;100100.73;;;27.58;47.72
51528;BME280;37612;51.768;21.590;2023-08-24T12:04:59;100093.98;;;27.53;47.24
51528;BME280;37612;51.768;21.590;2023-08-24T12:09:04;100086.79;;;27.50;47.00
51528;BME280;37612;51.768;21.590;2023-08-24T12:13:06;100086.59;;;27.49;46.64
51528;BME280;37612;51.768;21.590;2023-08-24T12:17:12;100092.12;;;27.50;46.03
51528;BME280;37612;51.768;21.590;2023-08-24T12:21:14;100088.86;;;27.48;46.28
51528;BME280;37612;51.768;21.590;2023-08-24T12:25:16;100085.25;;;27.52;46.78
51528;BME280;37612;51.768;21.590;2023-08-24T12:29:18;100077.11;;;27.60;46.38
51528;BME280;37612;51.768;21.590;2023-08-24T12:33:27;100078.05;;;27.73;46.24
51528;BME280;37612;51.768;21.590;2023-08-24T12:37:29;100077.19;;;27.73;45.00
51528;BME280;37612;51.768;21.590;2023-08-24T12:41:31;100078.36;;;27.65;45.61
51528;BME280;37612;51.768;21.590;2023-08-24T12:45:33;100070.08;;;27.66;45.07
51528;BME280;37612;51.768;21.590;2023-08-24T12:49:35;100062.91;;;27.69;45.15
51528;BME280;37612;51.768;21.590;2023-08-24T12:53:37;100061.08;;;27.67;44.44
51528;BME280;37612;51.768;21.590;2023-08-24T12:57:39;100060.52;;;27.53;44.38
51528;BME280;37612;51.768;21.590;2023-08-24T13:01:40;100054.23;;;27.52;44.79
51528;BME280;37612;51.768;21.590;2023-08-24T13:05:43;100045.88;;;27.62;44.68
51528;BME280;37612;51.768;21.590;2023-08-24T13:09:45;100042.70;;;27.77;44.10
51528;BME280;37612;51.768;21.590;2023-08-24T13:13:47;100041.73;;;27.63;43.54
51528;BME280;37612;51.768;21.590;2023-08-24T13:17:49;100037.13;;;27.54;43.97
51528;BME280;37612;51.768;21.590;2023-08-24T13:21:51;100039.71;;;27.46;44.17
51528;BME280;37612;51.768;21.590;2023-08-24T13:25:52;100035.74;;;27.39;43.97
51528;BME280;37612;51.768;21.590;2023-08-24T13:30:02;100032.90;;;27.37;43.34
51528;BME280;37612;51.768;21.590;2023-08-24T13:34:04;100031.69;;;27.36;43.15
51528;BME280;37612;51.768;21.590;2023-08-24T13:38:09;100030.84;;;27.45;43.17
51528;BME280;37612;51.768;21.590;2023-08-24T13:42:13;100025.09;;;27.39;43.17
51528;BME280;37612;51.768;21.590;2023-08-24T13:46:21;100022.38;;;27.33;43.04
51528;BME280;37612;51.768;21.590;2023-08-24T13:50:22;100020.64;;;27.28;42.76
51528;BME280;37612;51.768;21.590;2023-08-24T13:54:24;100018.23;;;27.25;42.26
51528;BME280;37612;51.768;21.590;2023-08-24T13:58:27;100014.81;;;27.21;42.37
51528;BME280;37612;51.768;21.590;2023-08-24T14:02:29;100010.92;;;27.08;41.87
51528;BME280;37612;51.768;21.590;2023-08-24T14:06:32;100013.41;;;26.99;42.26
51528;BME280;37612;51.768;21.590;2023-08-24T14:10:36;100008.23;;;27.06;42.66
51528;BME280;37612;51.768;21.590;2023-08-24T14:14:37;100003.09;;;27.12;42.53
51528;BME280;37612;51.768;21.590;2023-08-24T14:18:39;99996.73;;;27.07;42.12
51528;BME280;37612;51.768;21.590;2023-08-24T14:22:41;99993.61;;;26.96;42.17
51528;BME280;37612;51.768;21.590;2023-08-24T14:26:44;99997.70;;;26.97;42.35
51528;BME280;37612;51.768;21.590;2023-08-24T14:30:50;99995.50;;;27.04;42.39
51528;BME280;37612;51.768;21.590;2023-08-24T14:34:52;99995.70;;;27.13;42.22
51528;BME280;37612;51.768;21.590;2023-08-24T14:38:55;99997.52;;;27.23;42.23
51528;BME280;37612;51.768;21.590;2023-08-24T14:42:57;99992.59;;;27.27;42.09
51528;BME280;37612;51.768;21.590;2023-08-24T14:46:59;99996.40;;;27.25;42.06
51528;BME280;37612;51.768;21.590;2023-08-24T14:51:01;99996.55;;;27.25;42.07
51528;BME280;37612;51.768;21.590;2023-08-24T14:55:05;99996.21;;;27.12;42.03
51528;BME280;37612;51.768;21.590;2023-08-24T14:59:06;99997.27;;;27.06;42.43
51528;BME280;37612;51.768;21.590;2023-08-24T15:03:08;99992.98;;;27.18;42.43
51528;BME280;37612;51.768;21.590;2023-08-24T15:07:14;99991.09;;;28.34;42.12
51528;BME280;37612;51.768;21.590;2023-08-24T15:11:18;99993.16;;;30.36;39.27
51528;BME280;37612;51.768;21.590;2023-08-24T15:15:20;99989.86;;;31.93;37.68
51528;BME280;37612;51.768;21.590;2023-08-24T15:19:24;99982.56;;;33.15;37.28
51528;BME280;37612;51.768;21.590;2023-08-24T15:23:28;99990.65;;;33.91;37.25
51528;BME280;37612;51.768;21.590;2023-08-24T15:27:30;99990.50;;;35.18;36.45
51528;BME280;37612;51.768;21.590;2023-08-24T15:31:34;99982.50;;;36.12;35.16
51528;BME280;37612;51.768;21.590;2023-08-24T15:35:39;99980.90;;;35.36;35.24
51528;BME280;37612;51.768;21.590;2023-08-24T15:39:41;99974.97;;;33.50;35.82
51528;BME280;37612;51.768;21.590;2023-08-24T15:43:44;99970.94;;;33.52;35.18
51528;BME280;37612;51.768;21.590;2023-08-24T15:47:48;99961.96;;;33.87;35.19
51528;BME280;37612;51.768;21.590;2023-08-24T15:51:51;99960.09;;;33.87;34.70
51528;BME280;37612;51.768;21.590;2023-08-24T15:55:57;99962.81;;;32.77;35.05
51528;BME280;37612;51.768;21.590;2023-08-24T16:00:00;99961.16;;;31.97;35.34
51528;BME280;37612;51.768;21.590;2023-08-24T16:04:04;99957.95;;;32.79;34.80
51528;BME280;37612;51.768;21.590;2023-08-24T16:08:07;99954.33;;;33.65;34.59
51528;BME280;37612;51.768;21.590;2023-08-24T16:12:09;99946.52;;;34.24;34.09
51528;BME280;37612;51.768;21.590;2023-08-24T16:16:11;99936.84;;;34.59;33.59
51528;BME280;37612;51.768;21.590;2023-08-24T16:20:13;99937.00;;;34.89;33.19
51528;BME280;37612;51.768;21.590;2023-08-24T16:24:15;99941.66;;;35.35;33.19
51528;BME280;37612;51.768;21.590;2023-08-24T16:28:18;99941.81;;;35.35;33.08
51528;BME280;37612;51.768;21.590;2023-08-24T16:32:19;99941.84;;;35.12;32.99
51528;BME280;37612;51.768;21.590;2023-08-24T16:36:22;99937.67;;;34.80;32.95
51528;BME280;37612;51.768;21.590;2023-08-24T16:40:24;99941.84;;;34.23;33.08
51528;BME280;37612;51.768;21.590;2023-08-24T16:44:26;99942.73;;;33.97;33.47
51528;BME280;37612;51.768;21.590;2023-08-24T16:48:28;99946.73;;;33.23;34.16
51528;BME280;37612;51.768;21.590;2023-08-24T16:52:29;99950.03;;;31.97;35.14
51528;BME280;37612;51.768;21.590;2023-08-24T16:56:31;99944.48;;;30.69;36.52
51528;BME280;37612;51.768;21.590;2023-08-24T17:00:33;99941.50;;;29.59;37.82
51528;BME280;37612;51.768;21.590;2023-08-24T17:04:35;99951.42;;;28.60;39.08
51528;BME280;37612;51.768;21.590;2023-08-24T17:08:37;99943.41;;;27.68;40.41
51528;BME280;37612;51.768;21.590;2023-08-24T17:12:39;99948.48;;;26.89;41.56
51528;BME280;37612;51.768;21.590;2023-08-24T17:16:41;99947.11;;;26.18;42.38
51528;BME280;37612;51.768;21.590;2023-08-24T17:20:43;99944.05;;;25.55;43.45
51528;BME280;37612;51.768;21.590;2023-08-24T17:24:45;99944.65;;;24.98;44.58
51528;BME280;37612;51.768;21.590;2023-08-24T17:28:48;99948.54;;;24.48;45.73
51528;BME280;37612;51.768;21.590;2023-08-24T17:32:49;99958.78;;;24.06;46.95
51528;BME280;37612;51.768;21.590;2023-08-24T17:36:51;99971.23;;;23.73;47.72
51528;BME280;37612;51.768;21.590;2023-08-24T17:41:04;99988.73;;;23.42;49.12
51528;BME280;37612;51.768;21.590;2023-08-24T17:45:07;99981.08;;;23.10;50.12
51528;BME280;37612;51.768;21.590;2023-08-24T17:49:10;99974.17;;;22.75;50.42
51528;BME280;37612;51.768;21.590;2023-08-24T17:53:12;99962.44;;;22.35;50.71
51528;BME280;37612;51.768;21.590;2023-08-24T17:57:13;99963.39;;;22.03;51.69
51528;BME280;37612;51.768;21.590;2023-08-24T18:01:19;99958.66;;;21.76;52.76
51528;BME280;37612;51.768;21.590;2023-08-24T18:05:25;99959.13;;;21.53;53.53
51528;BME280;37612;51.768;21.590;2023-08-24T18:09:27;99966.55;;;21.32;53.97
51528;BME280;37612;51.768;21.590;2023-08-24T18:13:28;99978.35;;;21.15;54.84
51528;BME280;37612;51.768;21.590;2023-08-24T18:17:30;99974.86;;;20.99;55.54
51528;BME280;37612;51.768;21.590;2023-08-24T18:21:32;99979.87;;;20.82;55.76
51528;BME280;37612;51.768;21.590;2023-08-24T18:25:34;99983.19;;;20.65;56.43
51528;BME280;37612;51.768;21.590;2023-08-24T18:29:36;99993.73;;;20.49;57.75
51528;BME280;37612;51.768;21.590;2023-08-24T18:33:38;100004.05;;;20.33;58.08
51528;BME280;37612;51.768;21.590;2023-08-24T18:37:40;100015.46;;;20.23;58.67
51528;BME280;37612;51.768;21.590;2023-08-24T18:41:42;100013.23;;;20.15;59.17
51528;BME280;37612;51.768;21.590;2023-08-24T18:45:44;100005.95;;;20.09;59.24
51528;BME280;37612;51.768;21.590;2023-08-24T18:49:48;100000.39;;;20.00;59.83
51528;BME280;37612;51.768;21.590;2023-08-24T18:53:50;99998.48;;;19.92;60.14
51528;BME280;37612;51.768;21.590;2023-08-24T18:57:52;100003.23;;;19.80;61.08
51528;BME280;37612;51.768;21.590;2023-08-24T19:01:55;100006.88;;;19.65;61.59
51528;BME280;37612;51.768;21.590;2023-08-24T19:05:57;100010.89;;;19.49;61.69
51528;BME280;37612;51.768;21.590;2023-08-24T19:09:59;100016.92;;;19.35;62.19
51528;BME280;37612;51.768;21.590;2023-08-24T19:14:00;100012.84;;;19.27;62.38
51528;BME280;37612;51.768;21.590;2023-08-24T19:18:02;100007.17;;;19.22;62.85
51528;BME280;37612;51.768;21.590;2023-08-24T19:22:05;100004.00;;;19.16;63.31
51528;BME280;37612;51.768;21.590;2023-08-24T19:26:07;100003.59;;;19.07;63.76
51528;BME280;37612;51.768;21.590;2023-08-24T19:30:49;100008.48;;;18.94;64.42
51528;BME280;37612;51.768;21.590;2023-08-24T19:34:51;100006.64;;;18.87;64.76
51528;BME280;37612;51.768;21.590;2023-08-24T19:38:53;100007.72;;;18.82;65.05
51528;BME280;37612;51.768;21.590;2023-08-24T19:42:55;100007.02;;;18.78;65.09
51528;BME280;37612;51.768;21.590;2023-08-24T19:46:57;100004.59;;;18.72;65.55
51528;BME280;37612;51.768;21.590;2023-08-24T19:51:01;100001.42;;;18.62;65.64
51528;BME280;37612;51.768;21.590;2023-08-24T19:55:05;100006.94;;;18.52;65.84
51528;BME280;37612;51.768;21.590;2023-08-24T19:59:07;100005.72;;;18.46;66.05
51528;BME280;37612;51.768;21.590;2023-08-24T20:03:10;100001.92;;;18.41;66.53
51528;BME280;37612;51.768;21.590;2023-08-24T20:07:13;99998.96;;;18.38;66.74
51528;BME280;37612;51.768;21.590;2023-08-24T20:11:15;99998.79;;;18.31;67.17
51528;BME280;37612;51.768;21.590;2023-08-24T20:15:18;100000.61;;;18.23;67.56
51528;BME280;37612;51.768;21.590;2023-08-24T20:19:22;100006.56;;;18.15;67.87
51528;BME280;37612;51.768;21.590;2023-08-24T20:23:24;100011.55;;;18.11;68.28
51528;BME280;37612;51.768;21.590;2023-08-24T20:27:26;100006.44;;;18.07;68.20
51528;BME280;37612;51.768;21.590;2023-08-24T20:31:28;100003.86;;;17.98;68.48
51528;BME280;37612;51.768;21.590;2023-08-24T20:35:30;99992.38;;;17.86;68.87
51528;BME280;37612;51.768;21.590;2023-08-24T20:39:32;99988.06;;;17.76;69.23
51528;BME280;37612;51.768;21.590;2023-08-24T20:43:34;99987.88;;;17.67;69.51
51528;BME280;37612;51.768;21.590;2023-08-24T20:47:37;99989.63;;;17.65;70.14
51528;BME280;37612;51.768;21.590;2023-08-24T20:51:39;99992.48;;;17.66;70.69
51528;BME280;37612;51.768;21.590;2023-08-24T20:55:44;99991.89;;;17.63;70.89
51528;BME280;37612;51.768;21.590;2023-08-24T20:59:51;99984.31;;;17.55;71.12
51528;BME280;37612;51.768;21.590;2023-08-24T21:03:53;99985.78;;;17.51;71.08
51528;BME280;37612;51.768;21.590;2023-08-24T21:07:55;99984.02;;;17.47;71.17
51528;BME280;37612;51.768;21.590;2023-08-24T21:11:58;99984.88;;;17.48;71.64